Time;durP1;ratioP1;P1;durP2;ratioP2;P2;SDS_P1;SDS_P2;PMS_P1;PMS_P2;Temp;Humidity;BMP_temperature;BMP_pressure;BME280_temperature;BME280_humidity;BME280_pressure;Samples;Min_cycle;Max_cycle;Signal;HPM_P1;HPM_P2
2023/09/10 00:00:50;;;;;;;19.73;16.00;;;;;;;;;;5010029;28;20044;-75
2023/09/10 00:03:16;;;;;;;17.20;15.40;;;;;;;;;;5017988;28;20032;-75
2023/09/10 00:05:42;;;;;;;20.80;16.08;;;;;;;;;;5011582;28;20044;-76
2023/09/10 00:08:07;;;;;;;19.63;15.85;;;;;;;;;;5010504;28;20061;-75
2023/09/10 00:10:33;;;;;;;18.05;15.50;;;;;;;;;;5013986;28;20480;-75
2023/09/10 00:12:58;;;;;;;19.30;16.02;;;;;;;;;;5013334;28;20112;-75
2023/09/10 00:15:24;;;;;;;18.25;15.90;;;;;;;;;;5007872;28;20033;-75
2023/09/10 00:17:51;;;;;;;19.15;15.48;;;;;;;;;;5011796;28;20076;-75
2023/09/10 00:20:17;;;;;;;18.23;16.27;;;;;;;;;;5011156;28;20042;-75
2023/09/10 00:22:43;;;;;;;18.80;16.65;;;;;;;;;;5014690;28;20091;-75
2023/09/10 00:25:09;;;;;;;17.65;15.82;;;;;;;;;;5011735;28;20045;-75
2023/09/10 00:27:35;;;;;;;21.25;15.68;;;;;;;;;;5015781;28;20634;-75
2023/09/10 00:30:01;;;;;;;18.50;15.07;;;;;;;;;;5028433;28;20069;-75
2023/09/10 00:32:27;;;;;;;20.10;16.02;;;;;;;;;;5008021;28;20390;-75
2023/09/10 00:34:52;;;;;;;20.35;14.68;;;;;;;;;;5013071;28;20648;-75
2023/09/10 00:37:18;;;;;;;18.23;15.10;;;;;;;;;;5014801;28;20497;-75
2023/09/10 00:39:44;;;;;;;16.70;15.07;;;;;;;;;;5012545;28;20508;-75
2023/09/10 00:42:10;;;;;;;19.30;15.15;;;;;;;;;;5030787;28;20421;-75
2023/09/10 00:44:36;;;;;;;18.63;15.38;;;;;;;;;;5013576;28;20676;-75
2023/09/10 00:47:03;;;;;;;17.55;15.10;;;;;;;;;;5006682;28;20038;-75
2023/09/10 00:49:30;;;;;;;17.80;16.15;;;;;;;;;;5008362;28;20037;-75
2023/09/10 00:51:57;;;;;;;17.52;15.55;;;;;;;;;;5008388;28;20563;-75
2023/09/10 00:54:24;;;;;;;17.42;15.68;;;;;;;;;;5025974;28;20038;-75
2023/09/10 00:56:50;;;;;;;17.63;15.75;;;;;;;;;;4990078;28;20038;-75
2023/09/10 00:59:16;;;;;;;18.85;15.98;;;;;;;;;;5028222;28;20042;-75
2023/09/10 01:01:41;;;;;;;17.88;15.80;;;;;;;;;;5011269;28;20538;-75
2023/09/10 01:04:07;;;;;;;19.92;15.88;;;;;;;;;;5006760;28;20041;-75
2023/09/10 01:06:34;;;;;;;24.55;16.15;;;;;;;;;;5013410;28;20481;-75
2023/09/10 01:08:59;;;;;;;19.95;16.90;;;;;;;;;;5010100;28;20041;-75
2023/09/10 01:11:45;;;;;;;20.35;17.77;;;;;;;;;;5010721;28;20049;-76
2023/09/10 01:14:12;;;;;;;17.75;15.85;;;;;;;;;;4999868;28;20037;-75
2023/09/10 01:17:22;;;;;;;18.35;15.05;;;;;;;;;;5010646;28;20566;-75
2023/09/10 01:19:51;;;;;;;16.75;15.15;;;;;;;;;;4994371;28;20561;-76
2023/09/10 01:22:36;;;;;;;20.55;16.48;;;;;;;;;;5019595;28;20117;-76
2023/09/10 01:25:02;;;;;;;18.48;15.60;;;;;;;;;;5005382;28;20045;-76
2023/09/10 01:27:29;;;;;;;17.10;15.18;;;;;;;;;;5010398;28;20509;-76
2023/09/10 01:29:54;;;;;;;21.25;15.23;;;;;;;;;;5002258;28;20409;-77
2023/09/10 01:32:31;;;;;;;18.08;16.13;;;;;;;;;;5021030;28;20038;-76
2023/09/10 01:35:04;;;;;;;19.85;14.57;;;;;;;;;;5001623;28;20030;-76
2023/09/10 01:37:36;;;;;;;17.55;15.60;;;;;;;;;;4992642;28;20036;-76
2023/09/10 01:40:06;;;;;;;16.88;14.98;;;;;;;;;;5005698;28;20429;-76
2023/09/10 01:42:34;;;;;;;21.00;16.30;;;;;;;;;;5016831;28;20046;-75
2023/09/10 01:45:00;;;;;;;20.00;16.20;;;;;;;;;;5018382;28;20048;-76
2023/09/10 01:47:26;;;;;;;19.65;16.33;;;;;;;;;;5014535;28;20038;-76
2023/09/10 01:49:52;;;;;;;19.15;16.90;;;;;;;;;;4994899;28;20372;-76
2023/09/10 01:52:18;;;;;;;20.90;16.83;;;;;;;;;;5015362;28;20042;-75
2023/09/10 01:54:43;;;;;;;18.45;16.38;;;;;;;;;;4998455;28;20036;-76
2023/09/10 01:57:09;;;;;;;20.52;16.70;;;;;;;;;;5000435;28;20030;-76
2023/09/10 01:59:35;;;;;;;22.25;17.52;;;;;;;;;;5001746;28;20177;-76
2023/09/10 02:02:01;;;;;;;25.67;18.17;;;;;;;;;;5002907;28;20077;-76
2023/09/10 02:04:27;;;;;;;19.23;17.20;;;;;;;;;;5000334;28;20385;-76
2023/09/10 02:06:52;;;;;;;23.65;17.33;;;;;;;;;;5003101;28;20486;-76
2023/09/10 02:09:18;;;;;;;19.35;17.27;;;;;;;;;;5013790;28;20041;-76
2023/09/10 02:11:43;;;;;;;19.10;15.88;;;;;;;;;;5020892;28;20163;-75
2023/09/10 02:14:09;;;;;;;19.17;17.27;;;;;;;;;;5007842;28;20121;-76
2023/09/10 02:16:34;;;;;;;20.05;17.92;;;;;;;;;;5021170;28;20505;-72
2023/09/10 02:19:02;;;;;;;20.13;17.75;;;;;;;;;;5006581;28;20533;-71
2023/09/10 02:21:28;;;;;;;20.65;18.00;;;;;;;;;;5016372;28;20030;-72
2023/09/10 02:23:53;;;;;;;22.42;18.58;;;;;;;;;;5007130;28;20033;-71
2023/09/10 02:26:19;;;;;;;21.80;18.33;;;;;;;;;;5007705;28;20046;-72
2023/09/10 02:28:44;;;;;;;23.58;18.17;;;;;;;;;;5001198;28;20034;-71
2023/09/10 02:31:10;;;;;;;21.38;17.85;;;;;;;;;;5005490;28;20553;-72
2023/09/10 02:33:36;;;;;;;22.35;17.25;;;;;;;;;;5025201;28;20052;-71
2023/09/10 02:36:02;;;;;;;23.52;18.50;;;;;;;;;;5004052;28;20053;-70
2023/09/10 02:38:28;;;;;;;21.73;18.23;;;;;;;;;;4997510;28;20125;-72
2023/09/10 02:40:55;;;;;;;23.02;19.65;;;;;;;;;;5006083;28;20116;-71
2023/09/10 02:43:21;;;;;;;21.42;19.10;;;;;;;;;;5005944;28;20037;-72
2023/09/10 02:45:47;;;;;;;24.27;18.80;;;;;;;;;;5007180;28;20026;-70
2023/09/10 02:48:13;;;;;;;23.38;19.77;;;;;;;;;;5015436;28;20030;-71
2023/09/10 02:50:39;;;;;;;25.38;19.60;;;;;;;;;;5005555;28;20029;-71
2023/09/10 02:53:05;;;;;;;23.25;19.17;;;;;;;;;;5000459;28;20037;-72
2023/09/10 02:55:31;;;;;;;22.88;19.33;;;;;;;;;;4993879;28;20039;-71
2023/09/10 02:57:56;;;;;;;21.52;19.17;;;;;;;;;;5016573;28;20033;-73
2023/09/10 03:00:25;;;;;;;24.30;18.15;;;;;;;;;;5005223;28;20041;-71
2023/09/10 03:02:55;;;;;;;25.60;19.92;;;;;;;;;;5007498;28;20037;-72
2023/09/10 03:05:21;;;;;;;20.67;18.50;;;;;;;;;;4998077;28;20414;-71
2023/09/10 03:07:50;;;;;;;22.88;19.52;;;;;;;;;;5019000;28;20038;-72
2023/09/10 03:10:16;;;;;;;22.45;18.13;;;;;;;;;;4997146;28;20030;-72
2023/09/10 03:12:42;;;;;;;20.75;18.58;;;;;;;;;;5007030;28;20049;-72
2023/09/10 03:15:08;;;;;;;21.73;18.88;;;;;;;;;;5002363;28;20035;-72
2023/09/10 03:17:34;;;;;;;21.98;18.85;;;;;;;;;;5003081;28;20535;-72
2023/09/10 03:20:00;;;;;;;21.02;18.83;;;;;;;;;;4991983;28;20076;-71
2023/09/10 03:22:25;;;;;;;24.20;18.45;;;;;;;;;;5004132;28;20493;-72
2023/09/10 03:24:51;;;;;;;21.08;18.55;;;;;;;;;;5006175;28;20583;-71
2023/09/10 03:27:17;;;;;;;21.85;19.55;;;;;;;;;;4993313;28;20037;-71
2023/09/10 03:29:44;;;;;;;26.15;20.52;;;;;;;;;;5014743;28;20041;-71
2023/09/10 03:32:10;;;;;;;30.25;20.48;;;;;;;;;;5006836;28;20037;-71
2023/09/10 03:34:38;;;;;;;27.55;21.13;;;;;;;;;;5019018;28;20030;-71
2023/09/10 03:37:05;;;;;;;27.33;21.15;;;;;;;;;;5014218;28;20121;-71
2023/09/10 03:39:31;;;;;;;27.73;20.20;;;;;;;;;;4999712;28;20034;-71
2023/09/10 03:41:57;;;;;;;22.27;18.98;;;;;;;;;;5001570;28;21000;-71
2023/09/10 03:44:23;;;;;;;21.05;18.85;;;;;;;;;;4996586;28;20061;-74
2023/09/10 03:46:49;;;;;;;22.20;19.85;;;;;;;;;;4999832;28;20038;-73
2023/09/10 03:49:14;;;;;;;24.38;19.58;;;;;;;;;;5002715;28;20033;-74
2023/09/10 03:51:40;;;;;;;22.40;19.38;;;;;;;;;;5008642;28;20095;-73
2023/09/10 03:54:11;;;;;;;28.00;18.55;;;;;;;;;;4999755;28;20371;-73
2023/09/10 03:56:41;;;;;;;21.92;17.33;;;;;;;;;;4998948;28;20045;-72
2023/09/10 03:59:07;;;;;;;21.75;19.20;;;;;;;;;;4986705;28;20520;-73
2023/09/10 04:01:34;;;;;;;19.80;17.40;;;;;;;;;;5009412;28;20508;-73
2023/09/10 04:03:59;;;;;;;20.35;18.17;;;;;;;;;;5025032;28;20033;-77
2023/09/10 04:06:25;;;;;;;25.95;18.92;;;;;;;;;;4989736;28;20524;-77
2023/09/10 04:08:51;;;;;;;25.52;19.35;;;;;;;;;;5011941;28;20129;-77
2023/09/10 04:11:16;;;;;;;25.70;18.48;;;;;;;;;;5006517;28;20034;-77
2023/09/10 04:13:42;;;;;;;23.05;18.50;;;;;;;;;;5008865;28;20137;-77
2023/09/10 04:16:07;;;;;;;24.83;19.30;;;;;;;;;;5004198;28;20033;-77
2023/09/10 04:18:34;;;;;;;22.85;19.45;;;;;;;;;;5006264;28;20066;-77
2023/09/10 04:21:06;;;;;;;22.55;18.35;;;;;;;;;;5010956;28;20053;-79
2023/09/10 04:23:32;;;;;;;23.60;20.08;;;;;;;;;;5021327;28;20176;-79
2023/09/10 04:25:57;;;;;;;23.42;19.48;;;;;;;;;;5026561;28;20041;-79
2023/09/10 04:28:23;;;;;;;24.27;19.77;;;;;;;;;;5006830;28;20065;-79
2023/09/10 04:30:49;;;;;;;23.98;20.85;;;;;;;;;;5011164;28;20093;-79
2023/09/10 04:33:18;;;;;;;24.27;21.27;;;;;;;;;;5012939;28;20033;-78
2023/09/10 04:35:50;;;;;;;24.02;21.05;;;;;;;;;;4995226;28;20029;-79
2023/09/10 04:38:18;;;;;;;31.45;21.73;;;;;;;;;;5009915;28;20096;-79
2023/09/10 04:40:44;;;;;;;23.75;20.42;;;;;;;;;;5022891;28;20102;-79
2023/09/10 04:43:09;;;;;;;23.33;19.42;;;;;;;;;;5026641;28;20037;-79
2023/09/10 04:45:36;;;;;;;23.60;19.67;;;;;;;;;;5020743;28;20030;-79
2023/09/10 04:48:02;;;;;;;22.88;19.85;;;;;;;;;;5020082;28;20065;-79
2023/09/10 04:50:28;;;;;;;22.27;20.00;;;;;;;;;;5017237;28;20407;-78
2023/09/10 04:52:55;;;;;;;30.33;21.75;;;;;;;;;;4988851;28;20046;-79
2023/09/10 04:55:20;;;;;;;26.67;22.92;;;;;;;;;;5007599;28;20037;-79
2023/09/10 04:57:47;;;;;;;26.58;22.48;;;;;;;;;;4985869;28;20054;-78
2023/09/10 05:00:13;;;;;;;25.20;20.73;;;;;;;;;;5006655;28;20038;-78
2023/09/10 05:02:39;;;;;;;23.45;19.00;;;;;;;;;;4981291;28;20038;-79
2023/09/10 05:05:05;;;;;;;29.00;21.63;;;;;;;;;;4993739;28;20037;-72
2023/09/10 05:07:30;;;;;;;29.13;22.67;;;;;;;;;;5013813;28;20033;-72
2023/09/10 05:09:56;;;;;;;26.08;20.15;;;;;;;;;;5001118;28;20041;-72
2023/09/10 05:12:22;;;;;;;30.15;21.08;;;;;;;;;;4995397;28;20097;-72
2023/09/10 05:14:47;;;;;;;23.05;20.60;;;;;;;;;;4986371;28;20124;-72
2023/09/10 05:17:13;;;;;;;23.20;20.80;;;;;;;;;;5015611;28;20038;-72
2023/09/10 05:19:39;;;;;;;25.45;20.55;;;;;;;;;;4999209;28;20030;-72
2023/09/10 05:22:05;;;;;;;26.83;20.92;;;;;;;;;;4996582;28;20501;-72
2023/09/10 05:24:30;;;;;;;24.40;20.50;;;;;;;;;;5017197;28;20053;-72
2023/09/10 05:26:56;;;;;;;23.83;20.45;;;;;;;;;;5014838;28;20651;-72
2023/09/10 05:29:22;;;;;;;22.35;20.02;;;;;;;;;;5018020;28;20671;-72
2023/09/10 05:31:48;;;;;;;20.42;18.23;;;;;;;;;;5000118;28;20030;-72
2023/09/10 05:34:14;;;;;;;20.98;18.83;;;;;;;;;;5008112;28;20054;-72
2023/09/10 05:36:39;;;;;;;22.27;19.35;;;;;;;;;;5004424;28;20400;-72
2023/09/10 05:39:05;;;;;;;20.95;18.65;;;;;;;;;;5003895;28;20078;-72
2023/09/10 05:41:31;;;;;;;22.80;18.90;;;;;;;;;;4988186;28;20398;-72
2023/09/10 05:43:57;;;;;;;23.15;19.45;;;;;;;;;;4991930;28;20034;-72
2023/09/10 05:46:23;;;;;;;26.23;19.30;;;;;;;;;;5016272;28;20588;-72
2023/09/10 05:48:50;;;;;;;21.75;17.70;;;;;;;;;;5012359;28;20061;-72
2023/09/10 05:51:16;;;;;;;21.27;18.77;;;;;;;;;;4998689;28;20061;-72
2023/09/10 05:53:42;;;;;;;21.73;18.02;;;;;;;;;;5002768;28;20088;-72
2023/09/10 05:56:08;;;;;;;20.65;18.45;;;;;;;;;;5002619;28;20044;-72
2023/09/10 05:58:34;;;;;;;20.10;18.05;;;;;;;;;;4999169;28;20034;-72
2023/09/10 06:01:01;;;;;;;21.90;16.85;;;;;;;;;;5001205;28;20037;-72
2023/09/10 06:03:26;;;;;;;21.05;17.25;;;;;;;;;;5011718;28;20034;-72
2023/09/10 06:05:52;;;;;;;19.77;17.83;;;;;;;;;;4995767;28;20037;-72
2023/09/10 06:08:17;;;;;;;19.52;17.67;;;;;;;;;;4991505;28;20460;-72
2023/09/10 06:10:44;;;;;;;19.70;17.63;;;;;;;;;;4996861;28;20046;-72
2023/09/10 06:13:09;;;;;;;20.35;17.50;;;;;;;;;;4998555;28;20045;-73
2023/09/10 06:15:37;;;;;;;19.25;17.40;;;;;;;;;;4991835;28;20031;-72
2023/09/10 06:18:03;;;;;;;22.65;17.85;;;;;;;;;;4993552;28;20085;-73
2023/09/10 06:20:29;;;;;;;19.60;17.50;;;;;;;;;;4978699;28;20030;-72
2023/09/10 06:22:56;;;;;;;17.67;15.88;;;;;;;;;;5000611;28;20043;-72
2023/09/10 06:25:24;;;;;;;20.58;16.40;;;;;;;;;;5004508;28;20400;-72
2023/09/10 06:27:50;;;;;;;20.60;17.67;;;;;;;;;;4990628;28;20194;-73
2023/09/10 06:30:17;;;;;;;18.70;16.90;;;;;;;;;;4996724;28;20117;-72
2023/09/10 06:32:42;;;;;;;22.50;16.90;;;;;;;;;;4997299;28;20136;-72
2023/09/10 06:35:08;;;;;;;20.05;15.90;;;;;;;;;;5003100;28;20951;-72
2023/09/10 06:37:34;;;;;;;17.63;15.35;;;;;;;;;;4985242;28;20030;-72
2023/09/10 06:39:59;;;;;;;17.52;15.57;;;;;;;;;;5003611;28;20042;-72
2023/09/10 06:42:25;;;;;;;17.42;15.63;;;;;;;;;;4986209;28;20125;-72
2023/09/10 06:45:10;;;;;;;17.17;15.38;;;;;;;;;;5005987;28;20034;-72
2023/09/10 06:47:36;;;;;;;18.23;15.70;;;;;;;;;;4991355;28;20178;-72
2023/09/10 06:50:02;;;;;;;17.60;15.82;;;;;;;;;;4986879;28;20249;-72
2023/09/10 06:52:28;;;;;;;16.60;14.98;;;;;;;;;;4984900;28;20061;-73
2023/09/10 06:54:54;;;;;;;17.25;15.40;;;;;;;;;;4985634;28;20482;-72
2023/09/10 06:57:19;;;;;;;20.40;14.60;;;;;;;;;;4995698;28;20095;-72
2023/09/10 06:59:45;;;;;;;16.85;14.25;;;;;;;;;;4991284;28;20081;-72
2023/09/10 07:02:10;;;;;;;15.90;14.25;;;;;;;;;;4992145;28;20049;-73
2023/09/10 07:04:36;;;;;;;17.25;13.95;;;;;;;;;;4991269;28;20045;-72
2023/09/10 07:07:02;;;;;;;16.52;14.70;;;;;;;;;;4988951;28;20037;-73
2023/09/10 07:09:28;;;;;;;19.92;14.40;;;;;;;;;;4987957;28;20508;-73
2023/09/10 07:11:54;;;;;;;20.52;14.43;;;;;;;;;;4993922;28;20796;-73
2023/09/10 07:14:20;;;;;;;15.55;14.00;;;;;;;;;;4991918;28;20048;-73
2023/09/10 07:16:47;;;;;;;16.15;14.48;;;;;;;;;;4991878;28;20026;-73
2023/09/10 07:19:13;;;;;;;14.52;13.13;;;;;;;;;;4992650;28;20042;-73
2023/09/10 07:21:39;;;;;;;16.00;13.68;;;;;;;;;;5001176;28;20038;-73
2023/09/10 07:24:06;;;;;;;15.43;14.02;;;;;;;;;;4993578;28;20040;-73
2023/09/10 07:26:33;;;;;;;15.13;13.27;;;;;;;;;;4996297;28;20060;-73
2023/09/10 07:28:58;;;;;;;15.18;13.10;;;;;;;;;;5005334;28;20037;-73
2023/09/10 07:31:24;;;;;;;15.05;13.57;;;;;;;;;;4992808;28;20038;-73
2023/09/10 07:33:49;;;;;;;16.52;12.82;;;;;;;;;;5002924;28;20060;-75
2023/09/10 07:36:15;;;;;;;18.92;13.38;;;;;;;;;;5007347;28;20041;-75
2023/09/10 07:38:40;;;;;;;14.32;12.75;;;;;;;;;;5008908;28;20606;-75
2023/09/10 07:41:06;;;;;;;15.70;12.80;;;;;;;;;;4999528;28;20120;-73
2023/09/10 07:43:32;;;;;;;13.40;12.00;;;;;;;;;;5007002;28;20124;-72
2023/09/10 07:45:57;;;;;;;14.18;12.85;;;;;;;;;;4992698;28;20058;-74
2023/09/10 07:48:23;;;;;;;15.25;11.88;;;;;;;;;;5007896;28;20061;-73
2023/09/10 07:50:55;;;;;;;15.88;12.80;;;;;;;;;;4992564;28;20045;-75
2023/09/10 07:53:22;;;;;;;15.20;12.73;;;;;;;;;;4994941;28;20041;-75
2023/09/10 07:55:48;;;;;;;14.20;12.32;;;;;;;;;;4985288;28;20050;-74
2023/09/10 07:58:13;;;;;;;13.68;12.07;;;;;;;;;;4987168;28;20116;-75
2023/09/10 08:00:39;;;;;;;13.85;12.32;;;;;;;;;;4983660;28;20185;-75
2023/09/10 08:03:07;;;;;;;14.07;12.13;;;;;;;;;;4987389;28;20768;-75
2023/09/10 08:05:33;;;;;;;14.30;11.98;;;;;;;;;;4990618;28;20062;-75
2023/09/10 08:08:02;;;;;;;14.23;12.55;;;;;;;;;;4985630;28;20049;-75
2023/09/10 08:10:32;;;;;;;15.85;12.60;;;;;;;;;;4993161;28;20116;-75
2023/09/10 08:12:58;;;;;;;16.60;12.00;;;;;;;;;;4992375;28;20441;-75
2023/09/10 08:15:24;;;;;;;13.57;12.10;;;;;;;;;;5006233;28;20042;-76
2023/09/10 08:17:51;;;;;;;13.25;11.95;;;;;;;;;;4990698;28;20028;-75
2023/09/10 08:20:17;;;;;;;14.68;12.32;;;;;;;;;;4987621;28;20045;-75
2023/09/10 08:22:46;;;;;;;15.00;12.40;;;;;;;;;;4990424;28;20035;-75
2023/09/10 08:25:12;;;;;;;12.82;11.55;;;;;;;;;;4988891;28;20050;-75
2023/09/10 08:27:37;;;;;;;13.57;12.13;;;;;;;;;;4984165;28;20031;-75
2023/09/10 08:30:06;;;;;;;18.48;12.68;;;;;;;;;;4989555;28;20121;-75
2023/09/10 08:32:36;;;;;;;14.82;12.93;;;;;;;;;;4985638;28;20034;-75
2023/09/10 08:35:02;;;;;;;13.10;11.70;;;;;;;;;;4992397;28;20038;-75
2023/09/10 08:37:27;;;;;;;13.65;12.25;;;;;;;;;;4989100;28;20044;-75
2023/09/10 08:39:53;;;;;;;13.60;12.35;;;;;;;;;;5003606;28;20374;-76
2023/09/10 08:42:28;;;;;;;12.98;11.20;;;;;;;;;;4986607;28;20045;-75
2023/09/10 08:44:56;;;;;;;12.98;11.68;;;;;;;;;;4995784;28;20123;-75
2023/09/10 08:47:23;;;;;;;13.45;12.30;;;;;;;;;;4987286;28;20205;-75
2023/09/10 08:49:53;;;;;;;14.95;12.65;;;;;;;;;;4992578;28;20508;-75
2023/09/10 08:52:20;;;;;;;16.98;11.73;;;;;;;;;;4990392;28;20030;-75
2023/09/10 08:54:46;;;;;;;14.95;11.60;;;;;;;;;;4985334;28;20069;-75
2023/09/10 08:57:13;;;;;;;16.73;12.05;;;;;;;;;;4999198;28;20125;-77
2023/09/10 08:59:40;;;;;;;18.00;11.37;;;;;;;;;;4993635;28;20032;-75
2023/09/10 09:02:09;;;;;;;13.15;11.68;;;;;;;;;;4990204;28;20042;-75
2023/09/10 09:04:35;;;;;;;14.13;11.50;;;;;;;;;;4988143;28;20813;-75
2023/09/10 09:07:02;;;;;;;15.57;11.48;;;;;;;;;;4989864;28;20053;-74
2023/09/10 09:09:39;;;;;;;12.68;10.85;;;;;;;;;;4993228;28;20486;-74
2023/09/10 09:12:08;;;;;;;15.02;10.68;;;;;;;;;;4989803;28;20053;-74
2023/09/10 09:14:36;;;;;;;13.35;11.00;;;;;;;;;;4985256;28;20109;-75
2023/09/10 09:17:05;;;;;;;13.57;11.18;;;;;;;;;;4991261;28;20069;-74
2023/09/10 09:19:35;;;;;;;12.77;11.45;;;;;;;;;;4995306;28;20495;-74
2023/09/10 09:22:04;;;;;;;13.50;11.43;;;;;;;;;;4985355;28;20142;-74
2023/09/10 09:24:31;;;;;;;14.65;11.13;;;;;;;;;;4989468;28;20800;-74
2023/09/10 09:26:59;;;;;;;18.65;11.88;;;;;;;;;;4989071;28;20062;-74
2023/09/10 09:29:25;;;;;;;;;;;;;;;;;;4990494;28;20069;-74
2023/09/10 09:31:50;;;;;;;13.95;11.10;;;;;;;;;;4999786;28;19947;-74
2023/09/10 09:34:17;;;;;;;11.90;10.80;;;;;;;;;;4989166;28;20041;-74
2023/09/10 09:36:42;;;;;;;12.20;10.95;;;;;;;;;;5002356;28;20120;-74
2023/09/10 09:39:08;;;;;;;12.30;11.27;;;;;;;;;;4990211;28;20140;-74
2023/09/10 09:41:35;;;;;;;12.68;11.23;;;;;;;;;;4983173;28;20045;-74
2023/09/10 09:44:05;;;;;;;12.82;11.52;;;;;;;;;;4995332;28;20054;-74
2023/09/10 09:46:34;;;;;;;12.48;11.18;;;;;;;;;;4991510;28;20132;-74
2023/09/10 09:48:59;;;;;;;12.18;10.98;;;;;;;;;;4993176;28;20110;-74
2023/09/10 09:51:26;;;;;;;12.73;11.40;;;;;;;;;;5006228;28;20034;-74
2023/09/10 09:53:52;;;;;;;14.00;11.02;;;;;;;;;;4988496;28;20097;-74
2023/09/10 09:56:18;;;;;;;13.40;11.00;;;;;;;;;;4987273;28;20042;-74
2023/09/10 09:58:46;;;;;;;14.77;11.43;;;;;;;;;;4986085;28;20042;-74
2023/09/10 10:01:12;;;;;;;;;;;;;;;;;;4994284;28;20188;-74
2023/09/10 10:03:39;;;;;;;12.38;11.15;;;;;;;;;;4989283;28;19925;-74
2023/09/10 10:06:06;;;;;;;14.50;11.07;;;;;;;;;;4988078;28;20042;-74
2023/09/10 10:08:32;;;;;;;15.00;11.10;;;;;;;;;;4991601;28;20642;-74
2023/09/10 10:10:58;;;;;;;13.45;11.02;;;;;;;;;;4992363;28;20042;-75
2023/09/10 10:13:26;;;;;;;12.52;11.23;;;;;;;;;;4988171;28;21330;-75
2023/09/10 10:15:55;;;;;;;16.77;11.73;;;;;;;;;;5011239;28;20703;-75
2023/09/10 10:18:22;;;;;;;15.63;11.18;;;;;;;;;;4989526;28;20482;-75
2023/09/10 10:20:49;;;;;;;12.05;10.95;;;;;;;;;;4987464;28;20034;-75
2023/09/10 10:23:17;;;;;;;12.50;11.15;;;;;;;;;;4985093;28;20042;-75
2023/09/10 10:25:44;;;;;;;14.27;11.17;;;;;;;;;;4986148;28;20038;-75
2023/09/10 10:28:11;;;;;;;12.55;10.98;;;;;;;;;;4992797;28;20513;-75
2023/09/10 10:30:38;;;;;;;15.85;11.85;;;;;;;;;;4993141;28;20495;-75
2023/09/10 10:33:06;;;;;;;13.40;11.23;;;;;;;;;;4990278;28;20026;-74
2023/09/10 10:35:36;;;;;;;12.52;11.27;;;;;;;;;;4995979;28;20658;-74
2023/09/10 10:38:05;;;;;;;14.35;11.40;;;;;;;;;;4989890;28;20042;-74
2023/09/10 10:40:39;;;;;;;12.68;11.40;;;;;;;;;;4986928;28;20498;-74
2023/09/10 10:43:26;;;;;;;13.05;11.40;;;;;;;;;;4997198;28;20045;-74
2023/09/10 10:45:56;;;;;;;12.55;10.77;;;;;;;;;;4993677;28;20026;-74
2023/09/10 10:48:25;;;;;;;12.25;11.10;;;;;;;;;;5004265;28;20123;-74
2023/09/10 10:50:56;;;;;;;11.95;10.73;;;;;;;;;;4995324;28;20091;-75
2023/09/10 10:53:24;;;;;;;13.70;10.75;;;;;;;;;;4991946;28;20093;-74
2023/09/10 10:55:56;;;;;;;11.18;10.05;;;;;;;;;;4993469;28;20041;-74
2023/09/10 10:58:27;;;;;;;13.30;11.27;;;;;;;;;;4999821;28;20037;-74
2023/09/10 11:00:54;;;;;;;11.23;10.20;;;;;;;;;;5002947;28;20037;-75
2023/09/10 11:03:21;;;;;;;13.55;10.52;;;;;;;;;;4991981;28;20390;-75
2023/09/10 11:05:52;;;;;;;12.20;11.00;;;;;;;;;;4991322;28;20571;-75
2023/09/10 11:08:24;;;;;;;18.08;10.77;;;;;;;;;;4993045;28;20458;-75
2023/09/10 11:10:50;;;;;;;14.30;11.32;;;;;;;;;;4994839;28;20041;-75
2023/09/10 11:13:16;;;;;;;11.82;10.63;;;;;;;;;;4992079;28;20038;-75
2023/09/10 11:16:04;;;;;;;11.93;10.82;;;;;;;;;;4990041;28;20041;-75
2023/09/10 11:18:36;;;;;;;;;;;;;;;;;;4992071;28;20046;-74
2023/09/10 11:21:06;;;;;;;12.10;10.50;;;;;;;;;;4998949;28;20654;-75
2023/09/10 11:23:33;;;;;;;15.20;10.40;;;;;;;;;;4991045;28;20042;-75
2023/09/10 11:26:14;;;;;;;12.68;10.63;;;;;;;;;;5002030;28;20517;-75
2023/09/10 11:28:44;;;;;;;12.35;11.02;;;;;;;;;;4992672;28;20045;-75
2023/09/10 11:31:28;;;;;;;11.95;10.15;;;;;;;;;;4991505;28;20042;-74
2023/09/10 11:33:57;;;;;;;11.38;9.98;;;;;;;;;;4989650;28;20221;-75
2023/09/10 11:36:28;;;;;;;11.40;10.30;;;;;;;;;;4985252;28;20068;-75
2023/09/10 11:38:56;;;;;;;11.25;10.05;;;;;;;;;;4992533;28;20030;-75
2023/09/10 11:41:22;;;;;;;11.20;10.25;;;;;;;;;;4998563;28;20044;-75
2023/09/10 11:43:50;;;;;;;18.58;10.90;;;;;;;;;;4998453;28;20033;-75
2023/09/10 11:46:16;;;;;;;;;;;;;;;;;;4998960;28;20401;-74
2023/09/10 11:48:43;;;;;;;11.48;10.07;;;;;;;;;;5004718;28;20428;-74
2023/09/10 11:51:09;;;;;;;14.05;9.88;;;;;;;;;;4996553;28;20636;-75
2023/09/10 11:53:35;;;;;;;11.00;9.90;;;;;;;;;;4997242;28;20030;-75
2023/09/10 11:56:01;;;;;;;11.02;9.68;;;;;;;;;;5001915;28;20096;-75
2023/09/10 11:58:26;;;;;;;11.13;9.70;;;;;;;;;;5015819;28;20164;-75
2023/09/10 12:00:52;;;;;;;11.80;9.18;;;;;;;;;;5007829;28;20474;-75
2023/09/10 12:03:18;;;;;;;12.20;9.10;;;;;;;;;;4996135;28;20034;-75
2023/09/10 12:05:44;;;;;;;10.40;9.30;;;;;;;;;;4995527;28;20652;-75
2023/09/10 12:08:10;;;;;;;12.50;9.45;;;;;;;;;;5002686;28;20033;-75
2023/09/10 12:10:36;;;;;;;10.75;9.75;;;;;;;;;;4992366;28;20520;-76
2023/09/10 12:13:03;;;;;;;10.20;9.25;;;;;;;;;;4999382;28;20040;-75
2023/09/10 12:15:31;;;;;;;13.10;9.75;;;;;;;;;;4992343;28;20065;-75
2023/09/10 12:18:00;;;;;;;10.23;9.32;;;;;;;;;;5014418;28;20471;-75
2023/09/10 12:20:26;;;;;;;13.30;9.35;;;;;;;;;;4997771;28;20033;-75
2023/09/10 12:22:52;;;;;;;10.50;9.48;;;;;;;;;;4995405;28;20033;-75
2023/09/10 12:25:18;;;;;;;10.60;9.50;;;;;;;;;;4996043;28;20034;-75
2023/09/10 12:27:44;;;;;;;11.45;10.20;;;;;;;;;;5017210;28;20033;-76
2023/09/10 12:30:11;;;;;;;10.18;9.35;;;;;;;;;;4996475;28;20060;-76
2023/09/10 12:32:37;;;;;;;10.98;9.70;;;;;;;;;;4995094;28;20062;-75
2023/09/10 12:35:02;;;;;;;12.10;9.88;;;;;;;;;;4997371;28;20037;-75
2023/09/10 12:37:28;;;;;;;12.10;9.80;;;;;;;;;;4996815;28;20091;-75
2023/09/10 12:39:54;;;;;;;11.05;9.68;;;;;;;;;;4999426;28;20049;-76
2023/09/10 12:42:20;;;;;;;11.10;9.52;;;;;;;;;;4999334;28;20128;-75
2023/09/10 12:44:45;;;;;;;11.07;9.98;;;;;;;;;;4997330;28;20038;-75
2023/09/10 12:47:11;;;;;;;10.55;9.43;;;;;;;;;;5003636;28;20485;-75
2023/09/10 12:49:38;;;;;;;13.32;9.55;;;;;;;;;;4996662;28;20088;-75
2023/09/10 12:52:04;;;;;;;12.32;9.35;;;;;;;;;;4992622;28;20030;-75
2023/09/10 12:54:30;;;;;;;11.65;9.57;;;;;;;;;;4996770;28;20093;-75
2023/09/10 12:57:02;;;;;;;10.10;9.20;;;;;;;;;;5009878;28;20233;-75
2023/09/10 12:59:28;;;;;;;11.88;9.40;;;;;;;;;;4996830;28;20034;-75
2023/09/10 13:01:53;;;;;;;10.75;9.43;;;;;;;;;;5001567;28;20138;-75
2023/09/10 13:04:19;;;;;;;13.50;9.43;;;;;;;;;;4996759;28;20033;-76
2023/09/10 13:06:44;;;;;;;10.38;9.35;;;;;;;;;;5001549;28;20026;-76
2023/09/10 13:09:10;;;;;;;10.88;9.85;;;;;;;;;;4996526;28;20037;-76
2023/09/10 13:11:37;;;;;;;10.60;9.40;;;;;;;;;;4990725;28;20044;-76
2023/09/10 13:14:02;;;;;;;13.65;10.40;;;;;;;;;;4990608;28;20037;-76
2023/09/10 13:16:29;;;;;;;12.88;9.85;;;;;;;;;;4998062;28;20049;-77
2023/09/10 13:18:55;;;;;;;10.73;9.23;;;;;;;;;;5005318;28;20030;-75
2023/09/10 13:21:20;;;;;;;10.57;9.50;;;;;;;;;;4999009;28;20037;-76
2023/09/10 13:23:46;;;;;;;11.05;9.95;;;;;;;;;;5001552;28;20080;-76
2023/09/10 13:26:12;;;;;;;13.80;9.77;;;;;;;;;;4992596;28;20056;-76
2023/09/10 13:28:38;;;;;;;10.70;9.60;;;;;;;;;;4990737;28;20124;-76
2023/09/10 13:31:04;;;;;;;11.65;9.40;;;;;;;;;;5002518;28;20183;-76
2023/09/10 13:33:29;;;;;;;9.98;9.10;;;;;;;;;;4996019;28;20505;-76
2023/09/10 13:35:55;;;;;;;11.23;9.60;;;;;;;;;;4988162;28;20073;-76
2023/09/10 13:38:21;;;;;;;10.60;9.60;;;;;;;;;;4989994;28;20042;-76
2023/09/10 13:40:47;;;;;;;12.20;9.20;;;;;;;;;;4994030;28;20127;-75
2023/09/10 13:43:12;;;;;;;11.60;9.27;;;;;;;;;;4991920;28;20042;-76
2023/09/10 13:45:38;;;;;;;10.20;9.10;;;;;;;;;;5010549;28;20042;-75
2023/09/10 13:48:05;;;;;;;16.00;9.43;;;;;;;;;;4990307;28;20088;-77
2023/09/10 13:50:30;;;;;;;10.05;9.05;;;;;;;;;;4987651;28;20200;-76
2023/09/10 13:52:56;;;;;;;11.45;9.50;;;;;;;;;;4989977;28;20124;-76
2023/09/10 13:55:22;;;;;;;9.70;8.93;;;;;;;;;;4991943;28;20038;-76
2023/09/10 13:57:48;;;;;;;10.40;9.32;;;;;;;;;;5006668;28;20478;-76
2023/09/10 14:00:14;;;;;;;9.88;8.95;;;;;;;;;;5005717;28;20034;-76
2023/09/10 14:02:39;;;;;;;10.68;9.68;;;;;;;;;;4994668;28;20037;-76
2023/09/10 14:05:07;;;;;;;10.75;9.77;;;;;;;;;;4997295;28;20087;-77
2023/09/10 14:07:33;;;;;;;13.90;9.80;;;;;;;;;;4990119;28;20103;-77
2023/09/10 14:09:59;;;;;;;11.27;9.52;;;;;;;;;;4993286;28;20474;-77
2023/09/10 14:12:24;;;;;;;10.85;9.60;;;;;;;;;;4990381;28;20066;-76
2023/09/10 14:14:50;;;;;;;10.90;9.70;;;;;;;;;;4995002;28;20623;-76
2023/09/10 14:17:18;;;;;;;11.88;10.07;;;;;;;;;;4992752;28;20049;-75
2023/09/10 14:19:43;;;;;;;11.48;9.80;;;;;;;;;;4972863;28;20151;-77